EKOD/ODE METAR and TAF weather

Enter ICAO airport designator
Station Type Date Time Source
EKOD METAR 2020/09/24 09:50 UTC NOAA

EKOD 240950Z 22018KT 190V250 9999 FEW030 SCT050 17/11 Q0999


Station Type Date Time Source
EKOD Decoded METAR 2020/09/24 09:50 UTC NOAA

Odense / Beldringe, Denmark (EKOD) 55-29N 010-20E 17M
Sep 24, 2020 - 05:50 AM EDT / 2020.09.24 0950 UTC
Wind: from the SW (220 degrees) at 21 MPH (18 KT) (direction variable):0
Visibility: greater than 7 mile(s):0
Sky conditions: partly cloudy
Temperature: 62 F (17 C)
Dew Point: 51 F (11 C)
Relative Humidity: 67%
Pressure (altimeter): 29.50 in. Hg (0999 hPa)
ob: EKOD 240950Z 22018KT 190V250 9999 FEW030 SCT050 17/11 Q0999
cycle: 10

Station Type Date Time Source
EKOD TAF 2015/04/20 17:00 UTC NOAA

TAF
AMD EKOD 201701Z 2017/2018 CNL

Example: see airport list